sensor_id;sensor_type;location;lat;lon;timestamp;P1;durP1;ratioP1;P2;durP2;ratioP2
55300;SDS011;58302;51.446;-2.000;2023-05-24T00:01:40;11.93;;;5.97;;
55300;SDS011;58302;51.446;-2.000;2023-05-24T00:04:08;11.10;;;6.35;;
55300;SDS011;58302;51.446;-2.000;2023-05-24T00:06:35;11.57;;;6.82;;
55300;SDS011;58302;51.446;-2.000;2023-05-24T00:09:04;11.88;;;7.03;;
55300;SDS011;58302;51.446;-2.000;2023-05-24T00:11:30;11.15;;;6.13;;
55300;SDS011;58302;51.446;-2.000;2023-05-24T00:13:56;10.63;;;6.38;;
55300;SDS011;58302;51.446;-2.000;2023-05-24T00:16:22;10.10;;;6.50;;
55300;SDS011;58302;51.446;-2.000;2023-05-24T00:18:48;11.15;;;6.78;;
55300;SDS011;58302;51.446;-2.000;2023-05-24T00:21:14;9.60;;;5.38;;
55300;SDS011;58302;51.446;-2.000;2023-05-24T00:23:41;10.90;;;6.70;;
55300;SDS011;58302;51.446;-2.000;2023-05-24T00:26:08;9.82;;;6.20;;
55300;SDS011;58302;51.446;-2.000;2023-05-24T00:28:34;8.77;;;6.07;;
55300;SDS011;58302;51.446;-2.000;2023-05-24T00:31:00;13.48;;;6.82;;
55300;SDS011;58302;51.446;-2.000;2023-05-24T00:33:26;9.18;;;5.95;;
55300;SDS011;58302;51.446;-2.000;2023-05-24T00:35:53;9.68;;;5.97;;
55300;SDS011;58302;51.446;-2.000;2023-05-24T00:38:23;13.68;;;6.50;;
55300;SDS011;58302;51.446;-2.000;2023-05-24T00:40:52;12.98;;;5.85;;
55300;SDS011;58302;51.446;-2.000;2023-05-24T00:43:20;10.15;;;6.57;;
55300;SDS011;58302;51.446;-2.000;2023-05-24T00:45:47;11.18;;;6.38;;
55300;SDS011;58302;51.446;-2.000;2023-05-24T00:48:13;12.80;;;7.03;;
55300;SDS011;58302;51.446;-2.000;2023-05-24T00:50:39;10.52;;;6.75;;
55300;SDS011;58302;51.446;-2.000;2023-05-24T00:53:06;10.18;;;5.68;;
55300;SDS011;58302;51.446;-2.000;2023-05-24T00:55:33;8.02;;;6.05;;
55300;SDS011;58302;51.446;-2.000;2023-05-24T00:58:01;8.32;;;5.82;;
55300;SDS011;58302;51.446;-2.000;2023-05-24T01:00:28;9.63;;;6.30;;
55300;SDS011;58302;51.446;-2.000;2023-05-24T01:02:54;11.48;;;6.30;;
55300;SDS011;58302;51.446;-2.000;2023-05-24T01:05:20;11.05;;;5.85;;
55300;SDS011;58302;51.446;-2.000;2023-05-24T01:13:13;10.02;;;6.05;;
55300;SDS011;58302;51.446;-2.000;2023-05-24T01:27:18;10.93;;;6.65;;
55300;SDS011;58302;51.446;-2.000;2023-05-24T01:29:47;11.93;;;7.32;;
55300;SDS011;58302;51.446;-2.000;2023-05-24T01:32:18;9.77;;;6.72;;
55300;SDS011;58302;51.446;-2.000;2023-05-24T01:34:44;12.63;;;7.13;;
55300;SDS011;58302;51.446;-2.000;2023-05-24T01:37:10;10.45;;;7.35;;
55300;SDS011;58302;51.446;-2.000;2023-05-24T01:39:36;13.18;;;7.40;;
55300;SDS011;58302;51.446;-2.000;2023-05-24T01:44:46;12.68;;;7.35;;
55300;SDS011;58302;51.446;-2.000;2023-05-24T01:50:30;16.35;;;8.18;;
55300;SDS011;58302;51.446;-2.000;2023-05-24T01:53:01;14.27;;;8.07;;
55300;SDS011;58302;51.446;-2.000;2023-05-24T01:55:31;14.85;;;8.40;;
55300;SDS011;58302;51.446;-2.000;2023-05-24T01:57:59;15.88;;;9.25;;
55300;SDS011;58302;51.446;-2.000;2023-05-24T02:00:28;16.83;;;9.30;;
55300;SDS011;58302;51.446;-2.000;2023-05-24T02:02:56;13.60;;;7.72;;
55300;SDS011;58302;51.446;-2.000;2023-05-24T02:05:22;15.10;;;8.48;;
55300;SDS011;58302;51.446;-2.000;2023-05-24T02:07:48;14.93;;;8.52;;
55300;SDS011;58302;51.446;-2.000;2023-05-24T02:10:14;16.30;;;8.65;;
55300;SDS011;58302;51.446;-2.000;2023-05-24T02:12:40;13.68;;;9.93;;
55300;SDS011;58302;51.446;-2.000;2023-05-24T02:15:06;14.23;;;9.05;;
55300;SDS011;58302;51.446;-2.000;2023-05-24T02:17:33;13.93;;;9.50;;
55300;SDS011;58302;51.446;-2.000;2023-05-24T02:20:00;16.40;;;9.40;;
55300;SDS011;58302;51.446;-2.000;2023-05-24T02:22:26;14.23;;;8.32;;
55300;SDS011;58302;51.446;-2.000;2023-05-24T02:24:53;17.75;;;9.60;;
55300;SDS011;58302;51.446;-2.000;2023-05-24T02:27:19;14.93;;;8.93;;
55300;SDS011;58302;51.446;-2.000;2023-05-24T02:29:45;17.70;;;9.25;;
55300;SDS011;58302;51.446;-2.000;2023-05-24T02:32:12;16.10;;;8.90;;
55300;SDS011;58302;51.446;-2.000;2023-05-24T02:34:38;22.45;;;10.50;;
55300;SDS011;58302;51.446;-2.000;2023-05-24T02:37:04;16.23;;;10.23;;
55300;SDS011;58302;51.446;-2.000;2023-05-24T02:39:30;17.73;;;11.00;;
55300;SDS011;58302;51.446;-2.000;2023-05-24T02:41:56;16.10;;;10.40;;
55300;SDS011;58302;51.446;-2.000;2023-05-24T02:44:22;17.98;;;11.20;;
55300;SDS011;58302;51.446;-2.000;2023-05-24T02:46:48;17.08;;;10.60;;
55300;SDS011;58302;51.446;-2.000;2023-05-24T02:49:14;22.25;;;13.95;;
55300;SDS011;58302;51.446;-2.000;2023-05-24T02:51:40;21.50;;;14.30;;
55300;SDS011;58302;51.446;-2.000;2023-05-24T02:54:06;23.98;;;14.73;;
55300;SDS011;58302;51.446;-2.000;2023-05-24T02:56:32;28.50;;;13.60;;
55300;SDS011;58302;51.446;-2.000;2023-05-24T02:58:59;22.70;;;13.77;;
55300;SDS011;58302;51.446;-2.000;2023-05-24T03:01:25;23.00;;;12.60;;
55300;SDS011;58302;51.446;-2.000;2023-05-24T03:03:50;19.55;;;10.75;;
55300;SDS011;58302;51.446;-2.000;2023-05-24T03:06:16;18.73;;;11.20;;
55300;SDS011;58302;51.446;-2.000;2023-05-24T03:08:42;17.95;;;11.48;;
55300;SDS011;58302;51.446;-2.000;2023-05-24T03:11:08;13.27;;;10.65;;
55300;SDS011;58302;51.446;-2.000;2023-05-24T03:13:34;14.65;;;10.07;;
55300;SDS011;58302;51.446;-2.000;2023-05-24T03:16:00;13.20;;;10.30;;
55300;SDS011;58302;51.446;-2.000;2023-05-24T03:18:26;16.38;;;9.32;;
55300;SDS011;58302;51.446;-2.000;2023-05-24T03:20:52;15.30;;;10.35;;
55300;SDS011;58302;51.446;-2.000;2023-05-24T03:23:18;17.48;;;10.70;;
55300;SDS011;58302;51.446;-2.000;2023-05-24T03:25:44;11.98;;;8.32;;
55300;SDS011;58302;51.446;-2.000;2023-05-24T03:28:10;19.13;;;9.15;;
55300;SDS011;58302;51.446;-2.000;2023-05-24T03:30:39;16.55;;;10.00;;
55300;SDS011;58302;51.446;-2.000;2023-05-24T03:33:05;13.88;;;9.18;;
55300;SDS011;58302;51.446;-2.000;2023-05-24T03:35:31;13.05;;;8.90;;
55300;SDS011;58302;51.446;-2.000;2023-05-24T03:37:57;13.57;;;9.27;;
55300;SDS011;58302;51.446;-2.000;2023-05-24T03:40:23;16.23;;;9.68;;
55300;SDS011;58302;51.446;-2.000;2023-05-24T03:42:50;14.65;;;8.88;;
55300;SDS011;58302;51.446;-2.000;2023-05-24T03:45:16;12.80;;;7.13;;
55300;SDS011;58302;51.446;-2.000;2023-05-24T03:47:42;8.18;;;6.43;;
55300;SDS011;58302;51.446;-2.000;2023-05-24T03:50:08;14.63;;;6.80;;
55300;SDS011;58302;51.446;-2.000;2023-05-24T03:52:34;10.82;;;5.78;;
55300;SDS011;58302;51.446;-2.000;2023-05-24T03:55:00;8.18;;;5.47;;
55300;SDS011;58302;51.446;-2.000;2023-05-24T03:57:26;9.77;;;6.05;;
55300;SDS011;58302;51.446;-2.000;2023-05-24T03:59:52;12.77;;;5.93;;
55300;SDS011;58302;51.446;-2.000;2023-05-24T04:02:18;11.15;;;5.78;;
55300;SDS011;58302;51.446;-2.000;2023-05-24T04:04:44;7.90;;;5.90;;
55300;SDS011;58302;51.446;-2.000;2023-05-24T04:07:10;14.27;;;6.63;;
55300;SDS011;58302;51.446;-2.000;2023-05-24T04:09:36;16.15;;;7.28;;
55300;SDS011;58302;51.446;-2.000;2023-05-24T04:12:05;25.50;;;7.90;;
55300;SDS011;58302;51.446;-2.000;2023-05-24T04:14:31;28.17;;;8.95;;
55300;SDS011;58302;51.446;-2.000;2023-05-24T04:16:57;19.20;;;7.90;;
55300;SDS011;58302;51.446;-2.000;2023-05-24T04:19:23;15.50;;;8.00;;
55300;SDS011;58302;51.446;-2.000;2023-05-24T04:21:49;18.73;;;8.90;;
55300;SDS011;58302;51.446;-2.000;2023-05-24T04:24:15;13.52;;;7.90;;
55300;SDS011;58302;51.446;-2.000;2023-05-24T04:26:41;11.98;;;8.38;;
55300;SDS011;58302;51.446;-2.000;2023-05-24T04:29:07;19.25;;;10.35;;
55300;SDS011;58302;51.446;-2.000;2023-05-24T04:31:33;15.27;;;9.20;;
55300;SDS011;58302;51.446;-2.000;2023-05-24T04:33:59;29.33;;;11.27;;
55300;SDS011;58302;51.446;-2.000;2023-05-24T04:36:25;16.15;;;9.52;;
55300;SDS011;58302;51.446;-2.000;2023-05-24T04:38:51;12.57;;;8.65;;
55300;SDS011;58302;51.446;-2.000;2023-05-24T04:41:20;15.38;;;9.82;;
55300;SDS011;58302;51.446;-2.000;2023-05-24T04:43:47;14.40;;;9.77;;
55300;SDS011;58302;51.446;-2.000;2023-05-24T04:46:12;13.35;;;9.25;;
55300;SDS011;58302;51.446;-2.000;2023-05-24T04:48:38;13.35;;;9.07;;
55300;SDS011;58302;51.446;-2.000;2023-05-24T04:51:05;16.25;;;9.52;;
55300;SDS011;58302;51.446;-2.000;2023-05-24T04:53:31;21.25;;;9.88;;
55300;SDS011;58302;51.446;-2.000;2023-05-24T04:55:57;12.65;;;8.43;;
55300;SDS011;58302;51.446;-2.000;2023-05-24T04:58:23;14.68;;;9.23;;
55300;SDS011;58302;51.446;-2.000;2023-05-24T05:00:49;13.55;;;8.45;;
55300;SDS011;58302;51.446;-2.000;2023-05-24T05:03:15;11.55;;;8.50;;
55300;SDS011;58302;51.446;-2.000;2023-05-24T05:05:41;10.82;;;7.75;;
55300;SDS011;58302;51.446;-2.000;2023-05-24T05:08:07;16.02;;;8.65;;
55300;SDS011;58302;51.446;-2.000;2023-05-24T05:10:34;16.83;;;9.00;;
55300;SDS011;58302;51.446;-2.000;2023-05-24T05:13:00;14.02;;;8.77;;
55300;SDS011;58302;51.446;-2.000;2023-05-24T05:15:26;13.02;;;8.93;;
55300;SDS011;58302;51.446;-2.000;2023-05-24T05:17:52;12.43;;;8.65;;
55300;SDS011;58302;51.446;-2.000;2023-05-24T05:20:18;13.27;;;8.35;;
55300;SDS011;58302;51.446;-2.000;2023-05-24T05:22:47;16.13;;;7.70;;
55300;SDS011;58302;51.446;-2.000;2023-05-24T05:25:14;11.30;;;7.30;;
55300;SDS011;58302;51.446;-2.000;2023-05-24T05:27:40;12.73;;;7.75;;
55300;SDS011;58302;51.446;-2.000;2023-05-24T05:30:06;11.73;;;7.65;;
55300;SDS011;58302;51.446;-2.000;2023-05-24T05:32:33;14.30;;;7.10;;
55300;SDS011;58302;51.446;-2.000;2023-05-24T05:34:58;12.43;;;7.53;;
55300;SDS011;58302;51.446;-2.000;2023-05-24T05:37:24;12.98;;;6.57;;
55300;SDS011;58302;51.446;-2.000;2023-05-24T05:39:50;11.95;;;7.40;;
55300;SDS011;58302;51.446;-2.000;2023-05-24T05:42:16;11.10;;;6.53;;
55300;SDS011;58302;51.446;-2.000;2023-05-24T05:44:42;9.80;;;6.53;;
55300;SDS011;58302;51.446;-2.000;2023-05-24T05:47:08;11.27;;;7.35;;
55300;SDS011;58302;51.446;-2.000;2023-05-24T05:49:34;9.00;;;6.50;;
55300;SDS011;58302;51.446;-2.000;2023-05-24T05:52:01;9.90;;;6.68;;
55300;SDS011;58302;51.446;-2.000;2023-05-24T05:54:27;11.90;;;6.90;;
55300;SDS011;58302;51.446;-2.000;2023-05-24T05:56:54;13.93;;;7.03;;
55300;SDS011;58302;51.446;-2.000;2023-05-24T05:59:20;12.48;;;6.25;;
55300;SDS011;58302;51.446;-2.000;2023-05-24T06:01:46;12.13;;;5.72;;
55300;SDS011;58302;51.446;-2.000;2023-05-24T06:04:14;10.70;;;6.90;;
55300;SDS011;58302;51.446;-2.000;2023-05-24T06:06:40;9.75;;;7.13;;
55300;SDS011;58302;51.446;-2.000;2023-05-24T06:09:06;8.38;;;6.22;;
55300;SDS011;58302;51.446;-2.000;2023-05-24T06:11:32;9.25;;;5.50;;
55300;SDS011;58302;51.446;-2.000;2023-05-24T06:13:58;10.43;;;5.70;;
55300;SDS011;58302;51.446;-2.000;2023-05-24T06:16:24;7.63;;;5.10;;
55300;SDS011;58302;51.446;-2.000;2023-05-24T06:18:50;12.55;;;5.75;;
55300;SDS011;58302;51.446;-2.000;2023-05-24T06:21:16;11.70;;;5.70;;
55300;SDS011;58302;51.446;-2.000;2023-05-24T06:23:42;7.80;;;4.97;;
55300;SDS011;58302;51.446;-2.000;2023-05-24T06:26:08;7.88;;;5.35;;
55300;SDS011;58302;51.446;-2.000;2023-05-24T06:28:35;6.85;;;4.38;;
55300;SDS011;58302;51.446;-2.000;2023-05-24T06:31:04;9.20;;;4.70;;
55300;SDS011;58302;51.446;-2.000;2023-05-24T06:33:30;9.30;;;4.55;;
55300;SDS011;58302;51.446;-2.000;2023-05-24T06:35:59;8.98;;;5.13;;
55300;SDS011;58302;51.446;-2.000;2023-05-24T06:38:26;14.75;;;4.32;;
55300;SDS011;58302;51.446;-2.000;2023-05-24T06:40:52;6.53;;;3.67;;
55300;SDS011;58302;51.446;-2.000;2023-05-24T06:43:19;6.57;;;3.60;;
55300;SDS011;58302;51.446;-2.000;2023-05-24T06:45:45;5.22;;;3.30;;
55300;SDS011;58302;51.446;-2.000;2023-05-24T06:48:11;8.43;;;4.30;;
55300;SDS011;58302;51.446;-2.000;2023-05-24T06:50:37;9.23;;;4.15;;
55300;SDS011;58302;51.446;-2.000;2023-05-24T06:53:03;10.55;;;4.07;;
55300;SDS011;58302;51.446;-2.000;2023-05-24T06:55:29;9.20;;;3.67;;
55300;SDS011;58302;51.446;-2.000;2023-05-24T06:57:55;6.32;;;3.60;;
55300;SDS011;58302;51.446;-2.000;2023-05-24T07:00:21;10.52;;;3.80;;
55300;SDS011;58302;51.446;-2.000;2023-05-24T07:02:47;6.35;;;3.38;;
55300;SDS011;58302;51.446;-2.000;2023-05-24T07:05:13;9.10;;;3.50;;
55300;SDS011;58302;51.446;-2.000;2023-05-24T07:07:39;12.13;;;4.57;;
55300;SDS011;58302;51.446;-2.000;2023-05-24T07:10:07;9.13;;;3.30;;
55300;SDS011;58302;51.446;-2.000;2023-05-24T07:12:35;7.60;;;3.67;;
55300;SDS011;58302;51.446;-2.000;2023-05-24T07:15:02;9.30;;;3.85;;
55300;SDS011;58302;51.446;-2.000;2023-05-24T07:17:28;8.15;;;3.20;;
55300;SDS011;58302;51.446;-2.000;2023-05-24T07:19:54;12.57;;;3.50;;
55300;SDS011;58302;51.446;-2.000;2023-05-24T07:22:21;11.75;;;3.20;;
55300;SDS011;58302;51.446;-2.000;2023-05-24T07:24:48;6.43;;;3.38;;
55300;SDS011;58302;51.446;-2.000;2023-05-24T07:27:14;8.13;;;3.17;;
55300;SDS011;58302;51.446;-2.000;2023-05-24T07:29:40;7.05;;;3.28;;
55300;SDS011;58302;51.446;-2.000;2023-05-24T07:32:06;5.15;;;3.00;;
55300;SDS011;58302;51.446;-2.000;2023-05-24T07:34:32;14.00;;;3.78;;
55300;SDS011;58302;51.446;-2.000;2023-05-24T07:37:00;6.45;;;3.35;;
55300;SDS011;58302;51.446;-2.000;2023-05-24T07:39:26;10.60;;;3.40;;
55300;SDS011;58302;51.446;-2.000;2023-05-24T07:41:53;8.20;;;4.20;;
55300;SDS011;58302;51.446;-2.000;2023-05-24T07:44:19;10.82;;;4.85;;
55300;SDS011;58302;51.446;-2.000;2023-05-24T07:46:45;6.38;;;3.10;;
55300;SDS011;58302;51.446;-2.000;2023-05-24T07:49:11;6.75;;;3.38;;
55300;SDS011;58302;51.446;-2.000;2023-05-24T07:51:37;9.93;;;3.38;;
55300;SDS011;58302;51.446;-2.000;2023-05-24T07:54:03;8.27;;;3.47;;
55300;SDS011;58302;51.446;-2.000;2023-05-24T07:56:30;5.75;;;3.20;;
55300;SDS011;58302;51.446;-2.000;2023-05-24T07:58:57;7.97;;;4.00;;
55300;SDS011;58302;51.446;-2.000;2023-05-24T08:01:32;9.15;;;4.03;;
55300;SDS011;58302;51.446;-2.000;2023-05-24T08:04:00;8.07;;;3.13;;
55300;SDS011;58302;51.446;-2.000;2023-05-24T08:06:31;7.85;;;3.97;;
55300;SDS011;58302;51.446;-2.000;2023-05-24T08:09:00;7.00;;;3.17;;
55300;SDS011;58302;51.446;-2.000;2023-05-24T08:11:30;7.57;;;3.85;;
55300;SDS011;58302;51.446;-2.000;2023-05-24T08:13:56;8.95;;;4.07;;
55300;SDS011;58302;51.446;-2.000;2023-05-24T08:16:22;8.73;;;3.95;;
55300;SDS011;58302;51.446;-2.000;2023-05-24T08:18:48;9.98;;;3.80;;
55300;SDS011;58302;51.446;-2.000;2023-05-24T08:21:14;6.88;;;3.65;;
55300;SDS011;58302;51.446;-2.000;2023-05-24T08:23:41;7.43;;;3.15;;
55300;SDS011;58302;51.446;-2.000;2023-05-24T08:26:06;12.50;;;4.25;;
55300;SDS011;58302;51.446;-2.000;2023-05-24T08:28:33;7.32;;;4.45;;
55300;SDS011;58302;51.446;-2.000;2023-05-24T08:31:00;6.88;;;3.67;;
55300;SDS011;58302;51.446;-2.000;2023-05-24T08:33:26;8.63;;;4.22;;
55300;SDS011;58302;51.446;-2.000;2023-05-24T08:35:53;6.18;;;3.60;;
55300;SDS011;58302;51.446;-2.000;2023-05-24T08:38:19;9.55;;;4.05;;
55300;SDS011;58302;51.446;-2.000;2023-05-24T08:40:46;7.95;;;3.55;;
55300;SDS011;58302;51.446;-2.000;2023-05-24T08:43:12;7.50;;;4.00;;
55300;SDS011;58302;51.446;-2.000;2023-05-24T08:45:39;7.22;;;3.58;;
55300;SDS011;58302;51.446;-2.000;2023-05-24T08:48:05;12.38;;;4.40;;
55300;SDS011;58302;51.446;-2.000;2023-05-24T08:50:32;8.77;;;3.40;;
55300;SDS011;58302;51.446;-2.000;2023-05-24T08:52:58;7.13;;;3.90;;
55300;SDS011;58302;51.446;-2.000;2023-05-24T08:55:28;10.02;;;4.13;;
55300;SDS011;58302;51.446;-2.000;2023-05-24T08:57:55;7.90;;;3.50;;
55300;SDS011;58302;51.446;-2.000;2023-05-24T09:00:22;10.30;;;3.47;;
55300;SDS011;58302;51.446;-2.000;2023-05-24T09:02:48;13.98;;;4.60;;
55300;SDS011;58302;51.446;-2.000;2023-05-24T09:05:15;5.38;;;3.53;;
55300;SDS011;58302;51.446;-2.000;2023-05-24T09:07:47;8.38;;;3.70;;
55300;SDS011;58302;51.446;-2.000;2023-05-24T09:10:14;7.38;;;3.83;;
55300;SDS011;58302;51.446;-2.000;2023-05-24T09:12:45;8.77;;;3.50;;
55300;SDS011;58302;51.446;-2.000;2023-05-24T09:15:16;9.02;;;4.07;;
55300;SDS011;58302;51.446;-2.000;2023-05-24T09:17:42;6.70;;;3.67;;
55300;SDS011;58302;51.446;-2.000;2023-05-24T09:20:08;5.85;;;3.45;;
55300;SDS011;58302;51.446;-2.000;2023-05-24T09:22:36;13.65;;;4.40;;
55300;SDS011;58302;51.446;-2.000;2023-05-24T09:25:04;7.57;;;3.80;;
55300;SDS011;58302;51.446;-2.000;2023-05-24T09:27:32;6.95;;;4.03;;
55300;SDS011;58302;51.446;-2.000;2023-05-24T09:29:59;7.10;;;3.60;;
55300;SDS011;58302;51.446;-2.000;2023-05-24T09:32:26;25.20;;;9.50;;
55300;SDS011;58302;51.446;-2.000;2023-05-24T09:34:54;6.35;;;3.83;;
55300;SDS011;58302;51.446;-2.000;2023-05-24T09:37:22;10.65;;;4.75;;
55300;SDS011;58302;51.446;-2.000;2023-05-24T09:39:52;6.43;;;3.80;;
55300;SDS011;58302;51.446;-2.000;2023-05-24T09:42:19;11.20;;;3.80;;
55300;SDS011;58302;51.446;-2.000;2023-05-24T09:44:57;6.03;;;3.15;;
55300;SDS011;58302;51.446;-2.000;2023-05-24T09:47:27;6.10;;;3.80;;
55300;SDS011;58302;51.446;-2.000;2023-05-24T09:49:54;8.35;;;3.63;;
55300;SDS011;58302;51.446;-2.000;2023-05-24T09:52:20;7.70;;;3.30;;
55300;SDS011;58302;51.446;-2.000;2023-05-24T09:54:46;9.50;;;3.78;;
55300;SDS011;58302;51.446;-2.000;2023-05-24T09:57:16;8.63;;;3.78;;
55300;SDS011;58302;51.446;-2.000;2023-05-24T09:59:42;37.47;;;8.88;;
55300;SDS011;58302;51.446;-2.000;2023-05-24T10:02:09;10.88;;;4.07;;
55300;SDS011;58302;51.446;-2.000;2023-05-24T10:04:40;5.35;;;3.78;;
55300;SDS011;58302;51.446;-2.000;2023-05-24T10:07:06;8.00;;;3.65;;
55300;SDS011;58302;51.446;-2.000;2023-05-24T10:09:33;6.30;;;4.05;;
55300;SDS011;58302;51.446;-2.000;2023-05-24T10:12:00;6.80;;;3.53;;
55300;SDS011;58302;51.446;-2.000;2023-05-24T10:14:31;7.57;;;3.42;;
55300;SDS011;58302;51.446;-2.000;2023-05-24T10:16:59;6.60;;;3.95;;
55300;SDS011;58302;51.446;-2.000;2023-05-24T10:19:25;9.70;;;3.97;;
55300;SDS011;58302;51.446;-2.000;2023-05-24T10:21:52;6.68;;;3.33;;
55300;SDS011;58302;51.446;-2.000;2023-05-24T10:24:22;9.35;;;4.55;;
55300;SDS011;58302;51.446;-2.000;2023-05-24T10:26:50;9.68;;;3.85;;
55300;SDS011;58302;51.446;-2.000;2023-05-24T10:29:25;7.95;;;4.00;;
55300;SDS011;58302;51.446;-2.000;2023-05-24T10:32:06;10.45;;;5.32;;
55300;SDS011;58302;51.446;-2.000;2023-05-24T10:34:34;8.73;;;4.38;;
55300;SDS011;58302;51.446;-2.000;2023-05-24T10:37:01;7.88;;;3.50;;
55300;SDS011;58302;51.446;-2.000;2023-05-24T10:39:27;10.20;;;4.50;;
55300;SDS011;58302;51.446;-2.000;2023-05-24T10:41:56;7.72;;;4.10;;
55300;SDS011;58302;51.446;-2.000;2023-05-24T10:44:27;8.43;;;3.88;;
55300;SDS011;58302;51.446;-2.000;2023-05-24T10:47:08;8.98;;;4.20;;
55300;SDS011;58302;51.446;-2.000;2023-05-24T10:49:47;9.38;;;4.22;;
55300;SDS011;58302;51.446;-2.000;2023-05-24T10:52:16;5.43;;;3.33;;
55300;SDS011;58302;51.446;-2.000;2023-05-24T10:55:17;8.15;;;3.72;;
55300;SDS011;58302;51.446;-2.000;2023-05-24T10:57:35;8.48;;;3.33;;
55300;SDS011;58302;51.446;-2.000;2023-05-24T11:02:50;5.45;;;3.22;;
55300;SDS011;58302;51.446;-2.000;2023-05-24T11:05:23;7.22;;;3.70;;
55300;SDS011;58302;51.446;-2.000;2023-05-24T11:07:49;7.00;;;3.47;;
55300;SDS011;58302;51.446;-2.000;2023-05-24T11:10:29;8.32;;;3.70;;
55300;SDS011;58302;51.446;-2.000;2023-05-24T11:12:56;7.68;;;3.88;;
55300;SDS011;58302;51.446;-2.000;2023-05-24T11:15:22;6.32;;;3.67;;
55300;SDS011;58302;51.446;-2.000;2023-05-24T11:18:32;8.35;;;3.75;;
55300;SDS011;58302;51.446;-2.000;2023-05-24T11:20:41;5.90;;;3.42;;
55300;SDS011;58302;51.446;-2.000;2023-05-24T11:23:13;7.95;;;4.20;;
55300;SDS011;58302;51.446;-2.000;2023-05-24T11:25:40;6.10;;;3.42;;
55300;SDS011;58302;51.446;-2.000;2023-05-24T11:28:09;5.82;;;3.63;;
55300;SDS011;58302;51.446;-2.000;2023-05-24T11:33:19;10.60;;;3.78;;
55300;SDS011;58302;51.446;-2.000;2023-05-24T11:35:51;5.80;;;2.80;;
55300;SDS011;58302;51.446;-2.000;2023-05-24T11:38:20;5.47;;;3.60;;
55300;SDS011;58302;51.446;-2.000;2023-05-24T11:40:47;5.65;;;3.47;;
55300;SDS011;58302;51.446;-2.000;2023-05-24T11:43:15;5.75;;;3.13;;
55300;SDS011;58302;51.446;-2.000;2023-05-24T11:45:45;7.18;;;3.97;;
55300;SDS011;58302;51.446;-2.000;2023-05-24T11:48:13;6.32;;;3.70;;
55300;SDS011;58302;51.446;-2.000;2023-05-24T11:50:40;8.13;;;4.00;;
55300;SDS011;58302;51.446;-2.000;2023-05-24T11:53:13;6.97;;;3.30;;
55300;SDS011;58302;51.446;-2.000;2023-05-24T11:55:45;11.73;;;4.43;;
55300;SDS011;58302;51.446;-2.000;2023-05-24T12:01:03;4.50;;;2.97;;
55300;SDS011;58302;51.446;-2.000;2023-05-24T12:03:29;6.32;;;3.33;;
55300;SDS011;58302;51.446;-2.000;2023-05-24T12:05:56;7.47;;;3.05;;
55300;SDS011;58302;51.446;-2.000;2023-05-24T12:08:22;5.85;;;3.53;;
55300;SDS011;58302;51.446;-2.000;2023-05-24T12:10:47;9.35;;;3.92;;
55300;SDS011;58302;51.446;-2.000;2023-05-24T12:13:19;4.80;;;2.50;;
55300;SDS011;58302;51.446;-2.000;2023-05-24T12:15:48;6.15;;;2.95;;
55300;SDS011;58302;51.446;-2.000;2023-05-24T12:18:23;4.25;;;2.95;;
55300;SDS011;58302;51.446;-2.000;2023-05-24T12:20:50;5.60;;;2.88;;
55300;SDS011;58302;51.446;-2.000;2023-05-24T12:23:22;6.93;;;3.60;;
55300;SDS011;58302;51.446;-2.000;2023-05-24T12:25:58;4.65;;;2.25;;
55300;SDS011;58302;51.446;-2.000;2023-05-24T12:28:26;7.88;;;3.22;;
55300;SDS011;58302;51.446;-2.000;2023-05-24T12:31:00;4.60;;;2.95;;
55300;SDS011;58302;51.446;-2.000;2023-05-24T12:33:27;8.88;;;3.28;;
55300;SDS011;58302;51.446;-2.000;2023-05-24T12:35:53;6.32;;;3.38;;
55300;SDS011;58302;51.446;-2.000;2023-05-24T12:38:22;4.57;;;3.50;;
55300;SDS011;58302;51.446;-2.000;2023-05-24T12:40:52;6.00;;;3.15;;
55300;SDS011;58302;51.446;-2.000;2023-05-24T12:43:19;6.97;;;3.13;;
55300;SDS011;58302;51.446;-2.000;2023-05-24T12:45:45;7.65;;;3.85;;
55300;SDS011;58302;51.446;-2.000;2023-05-24T12:48:12;7.88;;;3.53;;
55300;SDS011;58302;51.446;-2.000;2023-05-24T12:50:38;6.13;;;3.78;;
55300;SDS011;58302;51.446;-2.000;2023-05-24T12:53:04;7.47;;;3.55;;
55300;SDS011;58302;51.446;-2.000;2023-05-24T12:55:31;6.15;;;3.25;;
55300;SDS011;58302;51.446;-2.000;2023-05-24T12:57:57;6.18;;;3.70;;
55300;SDS011;58302;51.446;-2.000;2023-05-24T13:00:24;6.10;;;2.75;;
55300;SDS011;58302;51.446;-2.000;2023-05-24T13:02:55;4.93;;;3.40;;
55300;SDS011;58302;51.446;-2.000;2023-05-24T13:05:23;5.75;;;3.25;;
55300;SDS011;58302;51.446;-2.000;2023-05-24T13:07:52;5.40;;;2.80;;
55300;SDS011;58302;51.446;-2.000;2023-05-24T13:10:19;10.32;;;3.53;;
55300;SDS011;58302;51.446;-2.000;2023-05-24T13:12:45;5.90;;;2.97;;
55300;SDS011;58302;51.446;-2.000;2023-05-24T13:15:11;4.43;;;2.90;;
55300;SDS011;58302;51.446;-2.000;2023-05-24T13:17:39;17.83;;;3.78;;
55300;SDS011;58302;51.446;-2.000;2023-05-24T13:20:08;7.90;;;2.88;;
55300;SDS011;58302;51.446;-2.000;2023-05-24T13:22:36;6.60;;;3.30;;
55300;SDS011;58302;51.446;-2.000;2023-05-24T13:25:03;5.25;;;3.40;;
55300;SDS011;58302;51.446;-2.000;2023-05-24T13:27:30;7.47;;;2.97;;
55300;SDS011;58302;51.446;-2.000;2023-05-24T13:29:56;6.50;;;2.90;;
55300;SDS011;58302;51.446;-2.000;2023-05-24T13:32:22;12.18;;;3.58;;
55300;SDS011;58302;51.446;-2.000;2023-05-24T13:34:48;8.00;;;3.25;;
55300;SDS011;58302;51.446;-2.000;2023-05-24T13:37:14;5.05;;;3.13;;
55300;SDS011;58302;51.446;-2.000;2023-05-24T13:39:41;7.22;;;3.20;;
55300;SDS011;58302;51.446;-2.000;2023-05-24T13:42:07;4.15;;;3.13;;
55300;SDS011;58302;51.446;-2.000;2023-05-24T13:44:33;6.45;;;2.70;;
55300;SDS011;58302;51.446;-2.000;2023-05-24T13:46:59;6.70;;;2.70;;
55300;SDS011;58302;51.446;-2.000;2023-05-24T13:49:26;6.28;;;3.40;;
55300;SDS011;58302;51.446;-2.000;2023-05-24T13:51:53;6.03;;;3.30;;
55300;SDS011;58302;51.446;-2.000;2023-05-24T13:54:19;4.07;;;2.90;;
55300;SDS011;58302;51.446;-2.000;2023-05-24T13:56:46;8.02;;;3.75;;
55300;SDS011;58302;51.446;-2.000;2023-05-24T13:59:13;5.50;;;3.10;;
55300;SDS011;58302;51.446;-2.000;2023-05-24T14:01:40;8.75;;;3.92;;
55300;SDS011;58302;51.446;-2.000;2023-05-24T14:04:07;6.55;;;3.45;;
55300;SDS011;58302;51.446;-2.000;2023-05-24T14:06:34;7.55;;;3.85;;
55300;SDS011;58302;51.446;-2.000;2023-05-24T14:09:02;8.88;;;3.28;;
55300;SDS011;58302;51.446;-2.000;2023-05-24T14:11:31;7.18;;;4.47;;
55300;SDS011;58302;51.446;-2.000;2023-05-24T14:13:58;5.00;;;3.35;;
55300;SDS011;58302;51.446;-2.000;2023-05-24T14:16:25;6.10;;;3.35;;
55300;SDS011;58302;51.446;-2.000;2023-05-24T14:18:51;5.97;;;3.35;;
55300;SDS011;58302;51.446;-2.000;2023-05-24T14:21:17;7.35;;;3.63;;
55300;SDS011;58302;51.446;-2.000;2023-05-24T14:23:46;5.97;;;3.30;;
55300;SDS011;58302;51.446;-2.000;2023-05-24T14:26:12;9.23;;;4.03;;
55300;SDS011;58302;51.446;-2.000;2023-05-24T14:28:38;9.18;;;4.45;;
55300;SDS011;58302;51.446;-2.000;2023-05-24T14:31:04;8.00;;;3.95;;
55300;SDS011;58302;51.446;-2.000;2023-05-24T14:33:30;4.50;;;3.10;;
55300;SDS011;58302;51.446;-2.000;2023-05-24T14:35:56;11.43;;;4.43;;
55300;SDS011;58302;51.446;-2.000;2023-05-24T14:38:22;7.95;;;3.65;;
55300;SDS011;58302;51.446;-2.000;2023-05-24T14:40:49;4.82;;;3.53;;
55300;SDS011;58302;51.446;-2.000;2023-05-24T14:43:23;6.65;;;3.85;;
55300;SDS011;58302;51.446;-2.000;2023-05-24T14:45:49;5.45;;;3.17;;
55300;SDS011;58302;51.446;-2.000;2023-05-24T14:48:14;7.22;;;4.30;;
55300;SDS011;58302;51.446;-2.000;2023-05-24T14:50:41;7.47;;;4.00;;
55300;SDS011;58302;51.446;-2.000;2023-05-24T14:53:08;5.53;;;3.60;;
55300;SDS011;58302;51.446;-2.000;2023-05-24T14:55:36;6.75;;;3.83;;
55300;SDS011;58302;51.446;-2.000;2023-05-24T14:58:03;7.28;;;3.55;;
55300;SDS011;58302;51.446;-2.000;2023-05-24T15:00:34;8.52;;;3.88;;